sensor_id;sensor_type;location;lat;lon;timestamp;temperature;humidity
5009;DHT22;2523;51.058;6.922;2024-01-25T00:01:10;8.70;99.90
5009;DHT22;2523;51.058;6.922;2024-01-25T00:03:35;8.80;99.90
5009;DHT22;2523;51.058;6.922;2024-01-25T00:06:01;8.80;1.00
5009;DHT22;2523;51.058;6.922;2024-01-25T00:08:27;8.80;1.00
5009;DHT22;2523;51.058;6.922;2024-01-25T00:10:53;8.70;1.00
5009;DHT22;2523;51.058;6.922;2024-01-25T00:13:18;8.70;99.90
5009;DHT22;2523;51.058;6.922;2024-01-25T00:15:44;8.70;1.00
5009;DHT22;2523;51.058;6.922;2024-01-25T00:18:09;8.70;99.90
5009;DHT22;2523;51.058;6.922;2024-01-25T00:20:35;8.70;99.90
5009;DHT22;2523;51.058;6.922;2024-01-25T00:23:01;8.80;1.00
5009;DHT22;2523;51.058;6.922;2024-01-25T00:25:26;8.80;99.90
5009;DHT22;2523;51.058;6.922;2024-01-25T00:27:52;8.80;1.00
5009;DHT22;2523;51.058;6.922;2024-01-25T00:30:18;8.80;99.90
5009;DHT22;2523;51.058;6.922;2024-01-25T00:32:43;8.80;1.00
5009;DHT22;2523;51.058;6.922;2024-01-25T00:35:10;8.80;1.00
5009;DHT22;2523;51.058;6.922;2024-01-25T00:37:36;8.90;1.00
5009;DHT22;2523;51.058;6.922;2024-01-25T00:40:02;8.90;1.00
5009;DHT22;2523;51.058;6.922;2024-01-25T00:42:29;8.90;99.90
5009;DHT22;2523;51.058;6.922;2024-01-25T00:44:56;9.00;1.00
5009;DHT22;2523;51.058;6.922;2024-01-25T00:47:22;8.90;1.00
5009;DHT22;2523;51.058;6.922;2024-01-25T00:49:48;8.90;99.90
5009;DHT22;2523;51.058;6.922;2024-01-25T00:52:14;8.90;99.90
5009;DHT22;2523;51.058;6.922;2024-01-25T00:54:39;8.90;1.00
5009;DHT22;2523;51.058;6.922;2024-01-25T00:57:05;8.90;1.00
5009;DHT22;2523;51.058;6.922;2024-01-25T00:59:31;8.90;1.00
5009;DHT22;2523;51.058;6.922;2024-01-25T01:01:58;8.90;1.00
5009;DHT22;2523;51.058;6.922;2024-01-25T01:04:25;9.00;99.90
5009;DHT22;2523;51.058;6.922;2024-01-25T01:06:50;9.00;99.90
5009;DHT22;2523;51.058;6.922;2024-01-25T01:09:16;8.90;1.00
5009;DHT22;2523;51.058;6.922;2024-01-25T01:11:43;8.90;1.00
5009;DHT22;2523;51.058;6.922;2024-01-25T01:14:08;8.90;1.00
5009;DHT22;2523;51.058;6.922;2024-01-25T01:16:34;8.80;99.90
5009;DHT22;2523;51.058;6.922;2024-01-25T01:19:01;8.70;1.00
5009;DHT22;2523;51.058;6.922;2024-01-25T01:21:32;8.70;99.90
5009;DHT22;2523;51.058;6.922;2024-01-25T01:23:57;8.70;1.00
5009;DHT22;2523;51.058;6.922;2024-01-25T01:26:23;8.60;1.00
5009;DHT22;2523;51.058;6.922;2024-01-25T01:28:48;8.60;1.00
5009;DHT22;2523;51.058;6.922;2024-01-25T01:31:14;8.50;1.00
5009;DHT22;2523;51.058;6.922;2024-01-25T01:33:39;8.50;1.00
5009;DHT22;2523;51.058;6.922;2024-01-25T01:36:05;8.50;61.00
5009;DHT22;2523;51.058;6.922;2024-01-25T01:38:31;8.50;1.00
5009;DHT22;2523;51.058;6.922;2024-01-25T01:40:57;8.40;56.40
5009;DHT22;2523;51.058;6.922;2024-01-25T01:43:22;8.40;1.00
5009;DHT22;2523;51.058;6.922;2024-01-25T01:45:49;8.30;50.30
5009;DHT22;2523;51.058;6.922;2024-01-25T01:48:15;8.30;99.90
5009;DHT22;2523;51.058;6.922;2024-01-25T01:50:42;8.30;99.90
5009;DHT22;2523;51.058;6.922;2024-01-25T01:53:08;8.30;99.90
5009;DHT22;2523;51.058;6.922;2024-01-25T01:55:34;8.20;99.90
5009;DHT22;2523;51.058;6.922;2024-01-25T01:57:59;8.20;99.90
5009;DHT22;2523;51.058;6.922;2024-01-25T02:00:26;8.20;99.90
5009;DHT22;2523;51.058;6.922;2024-01-25T02:02:51;8.20;99.90
5009;DHT22;2523;51.058;6.922;2024-01-25T02:05:17;8.10;99.90
5009;DHT22;2523;51.058;6.922;2024-01-25T02:07:43;8.20;99.90
5009;DHT22;2523;51.058;6.922;2024-01-25T02:10:09;8.10;99.90
5009;DHT22;2523;51.058;6.922;2024-01-25T02:12:35;8.10;99.90
5009;DHT22;2523;51.058;6.922;2024-01-25T02:15:01;8.10;99.90
5009;DHT22;2523;51.058;6.922;2024-01-25T02:17:27;8.10;99.90
5009;DHT22;2523;51.058;6.922;2024-01-25T02:19:52;8.10;99.90
5009;DHT22;2523;51.058;6.922;2024-01-25T02:22:19;8.10;99.90
5009;DHT22;2523;51.058;6.922;2024-01-25T02:24:44;8.20;99.90
5009;DHT22;2523;51.058;6.922;2024-01-25T02:27:10;8.30;99.90
5009;DHT22;2523;51.058;6.922;2024-01-25T02:29:36;8.30;99.90
5009;DHT22;2523;51.058;6.922;2024-01-25T02:32:02;8.40;99.90
5009;DHT22;2523;51.058;6.922;2024-01-25T02:34:28;8.30;99.90
5009;DHT22;2523;51.058;6.922;2024-01-25T02:36:53;8.40;99.90
5009;DHT22;2523;51.058;6.922;2024-01-25T02:39:19;8.40;99.90
5009;DHT22;2523;51.058;6.922;2024-01-25T02:41:44;8.40;99.90
5009;DHT22;2523;51.058;6.922;2024-01-25T02:44:11;8.60;99.90
5009;DHT22;2523;51.058;6.922;2024-01-25T02:46:37;8.60;99.90
5009;DHT22;2523;51.058;6.922;2024-01-25T02:49:03;8.60;99.90
5009;DHT22;2523;51.058;6.922;2024-01-25T02:51:29;8.70;99.90
5009;DHT22;2523;51.058;6.922;2024-01-25T02:53:54;8.70;99.90
5009;DHT22;2523;51.058;6.922;2024-01-25T02:56:20;8.60;99.90
5009;DHT22;2523;51.058;6.922;2024-01-25T02:58:46;8.60;99.90
5009;DHT22;2523;51.058;6.922;2024-01-25T03:01:11;8.60;99.90
5009;DHT22;2523;51.058;6.922;2024-01-25T03:03:37;8.60;99.90
5009;DHT22;2523;51.058;6.922;2024-01-25T03:06:06;8.70;99.90
5009;DHT22;2523;51.058;6.922;2024-01-25T03:08:31;8.60;99.90
5009;DHT22;2523;51.058;6.922;2024-01-25T03:10:57;8.60;99.90
5009;DHT22;2523;51.058;6.922;2024-01-25T03:13:22;8.60;99.90
5009;DHT22;2523;51.058;6.922;2024-01-25T03:15:48;8.60;99.90
5009;DHT22;2523;51.058;6.922;2024-01-25T03:18:13;8.60;99.90
5009;DHT22;2523;51.058;6.922;2024-01-25T03:20:39;8.50;99.90
5009;DHT22;2523;51.058;6.922;2024-01-25T03:23:04;8.50;99.90
5009;DHT22;2523;51.058;6.922;2024-01-25T03:25:30;8.40;99.90
5009;DHT22;2523;51.058;6.922;2024-01-25T03:27:56;8.40;99.90
5009;DHT22;2523;51.058;6.922;2024-01-25T03:30:22;8.40;99.90
5009;DHT22;2523;51.058;6.922;2024-01-25T03:32:47;8.30;99.90
5009;DHT22;2523;51.058;6.922;2024-01-25T03:35:13;8.20;99.90
5009;DHT22;2523;51.058;6.922;2024-01-25T03:37:38;8.20;99.90
5009;DHT22;2523;51.058;6.922;2024-01-25T03:40:05;8.20;99.90
5009;DHT22;2523;51.058;6.922;2024-01-25T03:42:30;8.20;99.90
5009;DHT22;2523;51.058;6.922;2024-01-25T03:44:56;8.10;99.90
5009;DHT22;2523;51.058;6.922;2024-01-25T03:47:22;8.10;99.90
5009;DHT22;2523;51.058;6.922;2024-01-25T03:49:47;8.10;99.90
5009;DHT22;2523;51.058;6.922;2024-01-25T03:52:13;8.10;99.90
5009;DHT22;2523;51.058;6.922;2024-01-25T03:54:38;8.10;99.90
5009;DHT22;2523;51.058;6.922;2024-01-25T03:57:04;8.10;99.90
5009;DHT22;2523;51.058;6.922;2024-01-25T03:59:30;8.10;99.90
5009;DHT22;2523;51.058;6.922;2024-01-25T04:01:55;8.10;99.90
5009;DHT22;2523;51.058;6.922;2024-01-25T04:04:21;8.10;99.90
5009;DHT22;2523;51.058;6.922;2024-01-25T04:06:46;8.10;99.90
5009;DHT22;2523;51.058;6.922;2024-01-25T04:09:12;8.10;99.90
5009;DHT22;2523;51.058;6.922;2024-01-25T04:11:38;8.10;99.90
5009;DHT22;2523;51.058;6.922;2024-01-25T04:14:05;8.10;99.90
5009;DHT22;2523;51.058;6.922;2024-01-25T04:16:31;8.00;99.90
5009;DHT22;2523;51.058;6.922;2024-01-25T04:18:57;8.00;99.90
5009;DHT22;2523;51.058;6.922;2024-01-25T04:21:22;8.00;99.90
5009;DHT22;2523;51.058;6.922;2024-01-25T04:23:48;7.90;99.90
5009;DHT22;2523;51.058;6.922;2024-01-25T04:26:14;7.90;99.90
5009;DHT22;2523;51.058;6.922;2024-01-25T04:28:40;7.90;99.90
5009;DHT22;2523;51.058;6.922;2024-01-25T04:31:06;7.90;99.90
5009;DHT22;2523;51.058;6.922;2024-01-25T04:33:31;7.90;99.90
5009;DHT22;2523;51.058;6.922;2024-01-25T04:35:57;7.90;99.90
5009;DHT22;2523;51.058;6.922;2024-01-25T04:38:22;7.80;99.90
5009;DHT22;2523;51.058;6.922;2024-01-25T04:40:48;7.80;99.90
5009;DHT22;2523;51.058;6.922;2024-01-25T04:43:13;7.80;99.90
5009;DHT22;2523;51.058;6.922;2024-01-25T04:45:39;7.80;99.90
5009;DHT22;2523;51.058;6.922;2024-01-25T04:48:05;7.70;99.90
5009;DHT22;2523;51.058;6.922;2024-01-25T04:50:31;7.70;99.90
5009;DHT22;2523;51.058;6.922;2024-01-25T04:52:57;7.70;99.90
5009;DHT22;2523;51.058;6.922;2024-01-25T04:55:22;7.60;99.90
5009;DHT22;2523;51.058;6.922;2024-01-25T04:57:48;7.60;99.90
5009;DHT22;2523;51.058;6.922;2024-01-25T05:00:17;7.60;99.90
5009;DHT22;2523;51.058;6.922;2024-01-25T05:02:42;7.50;99.90
5009;DHT22;2523;51.058;6.922;2024-01-25T05:05:08;7.50;99.90
5009;DHT22;2523;51.058;6.922;2024-01-25T05:07:33;7.50;99.90
5009;DHT22;2523;51.058;6.922;2024-01-25T05:09:59;7.50;99.90
5009;DHT22;2523;51.058;6.922;2024-01-25T05:12:24;7.40;99.90
5009;DHT22;2523;51.058;6.922;2024-01-25T05:14:50;7.40;99.90
5009;DHT22;2523;51.058;6.922;2024-01-25T05:17:16;7.40;99.90
5009;DHT22;2523;51.058;6.922;2024-01-25T05:19:41;7.40;99.90
5009;DHT22;2523;51.058;6.922;2024-01-25T05:22:06;7.40;99.90
5009;DHT22;2523;51.058;6.922;2024-01-25T05:24:33;7.30;99.90
5009;DHT22;2523;51.058;6.922;2024-01-25T05:26:59;7.30;99.90
5009;DHT22;2523;51.058;6.922;2024-01-25T05:29:24;7.20;99.90
5009;DHT22;2523;51.058;6.922;2024-01-25T05:31:50;7.20;99.90
5009;DHT22;2523;51.058;6.922;2024-01-25T05:34:15;7.20;99.90
5009;DHT22;2523;51.058;6.922;2024-01-25T05:36:41;7.20;99.90
5009;DHT22;2523;51.058;6.922;2024-01-25T05:39:07;7.10;99.90
5009;DHT22;2523;51.058;6.922;2024-01-25T05:41:33;7.10;99.90
5009;DHT22;2523;51.058;6.922;2024-01-25T05:43:59;7.10;99.90
5009;DHT22;2523;51.058;6.922;2024-01-25T05:46:25;7.00;99.90
5009;DHT22;2523;51.058;6.922;2024-01-25T05:48:51;7.00;99.90
5009;DHT22;2523;51.058;6.922;2024-01-25T05:51:17;7.00;99.90
5009;DHT22;2523;51.058;6.922;2024-01-25T05:53:43;7.00;99.90
5009;DHT22;2523;51.058;6.922;2024-01-25T05:56:08;6.90;99.90
5009;DHT22;2523;51.058;6.922;2024-01-25T05:58:34;6.90;99.90
5009;DHT22;2523;51.058;6.922;2024-01-25T06:01:00;6.90;99.90
5009;DHT22;2523;51.058;6.922;2024-01-25T06:03:25;6.90;99.90
5009;DHT22;2523;51.058;6.922;2024-01-25T06:05:51;6.90;99.90
5009;DHT22;2523;51.058;6.922;2024-01-25T06:08:16;6.80;99.90
5009;DHT22;2523;51.058;6.922;2024-01-25T06:10:42;6.80;99.90
5009;DHT22;2523;51.058;6.922;2024-01-25T06:13:08;6.80;99.90
5009;DHT22;2523;51.058;6.922;2024-01-25T06:15:34;6.80;99.90
5009;DHT22;2523;51.058;6.922;2024-01-25T06:18:00;6.70;99.90
5009;DHT22;2523;51.058;6.922;2024-01-25T06:20:25;6.70;99.90
5009;DHT22;2523;51.058;6.922;2024-01-25T06:22:51;6.60;99.90
5009;DHT22;2523;51.058;6.922;2024-01-25T06:25:17;6.60;99.90
5009;DHT22;2523;51.058;6.922;2024-01-25T06:27:42;6.60;99.90
5009;DHT22;2523;51.058;6.922;2024-01-25T06:30:09;6.60;99.90
5009;DHT22;2523;51.058;6.922;2024-01-25T06:32:34;6.60;99.90
5009;DHT22;2523;51.058;6.922;2024-01-25T06:35:00;6.50;99.90
5009;DHT22;2523;51.058;6.922;2024-01-25T06:37:26;6.50;99.90
5009;DHT22;2523;51.058;6.922;2024-01-25T06:39:51;6.40;99.90
5009;DHT22;2523;51.058;6.922;2024-01-25T06:42:17;6.40;99.90
5009;DHT22;2523;51.058;6.922;2024-01-25T06:44:42;6.30;99.90
5009;DHT22;2523;51.058;6.922;2024-01-25T06:47:08;6.30;99.90
5009;DHT22;2523;51.058;6.922;2024-01-25T06:49:33;6.20;99.90
5009;DHT22;2523;51.058;6.922;2024-01-25T06:51:59;6.20;99.90
5009;DHT22;2523;51.058;6.922;2024-01-25T06:54:24;6.10;99.90
5009;DHT22;2523;51.058;6.922;2024-01-25T06:56:50;6.10;99.90
5009;DHT22;2523;51.058;6.922;2024-01-25T06:59:16;6.00;99.90
5009;DHT22;2523;51.058;6.922;2024-01-25T07:01:42;6.00;99.90
5009;DHT22;2523;51.058;6.922;2024-01-25T07:04:08;6.00;99.90
5009;DHT22;2523;51.058;6.922;2024-01-25T07:06:33;6.00;99.90
5009;DHT22;2523;51.058;6.922;2024-01-25T07:08:59;6.00;99.90
5009;DHT22;2523;51.058;6.922;2024-01-25T07:11:24;5.90;99.90
5009;DHT22;2523;51.058;6.922;2024-01-25T07:13:53;5.80;99.90
5009;DHT22;2523;51.058;6.922;2024-01-25T07:16:19;5.70;99.90
5009;DHT22;2523;51.058;6.922;2024-01-25T07:18:44;5.80;99.90
5009;DHT22;2523;51.058;6.922;2024-01-25T07:21:10;5.80;99.90
5009;DHT22;2523;51.058;6.922;2024-01-25T07:23:36;5.80;99.90
5009;DHT22;2523;51.058;6.922;2024-01-25T07:26:01;5.80;99.90
5009;DHT22;2523;51.058;6.922;2024-01-25T07:28:27;5.70;99.90
5009;DHT22;2523;51.058;6.922;2024-01-25T07:30:53;5.70;99.90
5009;DHT22;2523;51.058;6.922;2024-01-25T07:33:18;5.70;99.90
5009;DHT22;2523;51.058;6.922;2024-01-25T07:35:44;5.70;99.90
5009;DHT22;2523;51.058;6.922;2024-01-25T07:38:13;5.60;99.90
5009;DHT22;2523;51.058;6.922;2024-01-25T07:40:39;5.60;99.90
5009;DHT22;2523;51.058;6.922;2024-01-25T07:43:04;5.60;99.90
5009;DHT22;2523;51.058;6.922;2024-01-25T07:45:31;5.60;99.90
5009;DHT22;2523;51.058;6.922;2024-01-25T07:47:57;5.50;99.90
5009;DHT22;2523;51.058;6.922;2024-01-25T07:50:22;5.60;99.90
5009;DHT22;2523;51.058;6.922;2024-01-25T07:52:48;5.60;99.90
5009;DHT22;2523;51.058;6.922;2024-01-25T07:55:15;5.60;99.90
5009;DHT22;2523;51.058;6.922;2024-01-25T07:57:41;5.70;99.90
5009;DHT22;2523;51.058;6.922;2024-01-25T08:00:07;5.70;99.90
5009;DHT22;2523;51.058;6.922;2024-01-25T08:02:44;5.70;99.90
5009;DHT22;2523;51.058;6.922;2024-01-25T08:05:10;5.80;99.90
5009;DHT22;2523;51.058;6.922;2024-01-25T08:07:37;5.80;99.90
5009;DHT22;2523;51.058;6.922;2024-01-25T08:10:03;5.90;99.90
5009;DHT22;2523;51.058;6.922;2024-01-25T08:12:29;6.00;99.90
5009;DHT22;2523;51.058;6.922;2024-01-25T08:14:55;6.00;99.90
5009;DHT22;2523;51.058;6.922;2024-01-25T08:17:21;6.10;99.90
5009;DHT22;2523;51.058;6.922;2024-01-25T08:19:46;6.20;99.90
5009;DHT22;2523;51.058;6.922;2024-01-25T08:22:12;6.30;99.90
5009;DHT22;2523;51.058;6.922;2024-01-25T08:24:39;6.40;99.90
5009;DHT22;2523;51.058;6.922;2024-01-25T08:27:04;6.50;99.90
5009;DHT22;2523;51.058;6.922;2024-01-25T08:29:30;6.50;99.90
5009;DHT22;2523;51.058;6.922;2024-01-25T08:31:56;6.60;99.90
5009;DHT22;2523;51.058;6.922;2024-01-25T08:34:21;6.70;99.90
5009;DHT22;2523;51.058;6.922;2024-01-25T08:36:47;6.70;99.90
5009;DHT22;2523;51.058;6.922;2024-01-25T08:39:12;6.70;99.90
5009;DHT22;2523;51.058;6.922;2024-01-25T08:41:39;6.80;99.90
5009;DHT22;2523;51.058;6.922;2024-01-25T08:44:05;6.90;99.90
5009;DHT22;2523;51.058;6.922;2024-01-25T08:46:30;7.00;99.90
5009;DHT22;2523;51.058;6.922;2024-01-25T08:48:56;7.10;99.90
5009;DHT22;2523;51.058;6.922;2024-01-25T08:51:21;7.20;99.90
5009;DHT22;2523;51.058;6.922;2024-01-25T08:53:47;7.30;99.90
5009;DHT22;2523;51.058;6.922;2024-01-25T08:56:12;7.40;99.90
5009;DHT22;2523;51.058;6.922;2024-01-25T08:58:38;7.50;99.90
5009;DHT22;2523;51.058;6.922;2024-01-25T09:01:04;7.50;99.90
5009;DHT22;2523;51.058;6.922;2024-01-25T09:03:29;7.60;99.90
5009;DHT22;2523;51.058;6.922;2024-01-25T09:05:55;7.70;99.90
5009;DHT22;2523;51.058;6.922;2024-01-25T09:08:20;7.80;99.90
5009;DHT22;2523;51.058;6.922;2024-01-25T09:10:46;7.90;99.90
5009;DHT22;2523;51.058;6.922;2024-01-25T09:13:11;8.00;99.90
5009;DHT22;2523;51.058;6.922;2024-01-25T09:15:37;8.10;99.90
5009;DHT22;2523;51.058;6.922;2024-01-25T09:18:03;8.20;99.90
5009;DHT22;2523;51.058;6.922;2024-01-25T09:20:29;8.30;99.90
5009;DHT22;2523;51.058;6.922;2024-01-25T09:22:54;8.20;99.90
5009;DHT22;2523;51.058;6.922;2024-01-25T09:25:20;8.20;99.90
5009;DHT22;2523;51.058;6.922;2024-01-25T09:27:46;8.20;99.90
5009;DHT22;2523;51.058;6.922;2024-01-25T09:30:11;8.10;99.90
5009;DHT22;2523;51.058;6.922;2024-01-25T09:32:37;8.20;99.90
5009;DHT22;2523;51.058;6.922;2024-01-25T09:35:03;8.30;99.90
5009;DHT22;2523;51.058;6.922;2024-01-25T09:37:28;8.40;99.90
5009;DHT22;2523;51.058;6.922;2024-01-25T09:39:54;8.60;99.90
5009;DHT22;2523;51.058;6.922;2024-01-25T09:42:19;8.70;99.90
5009;DHT22;2523;51.058;6.922;2024-01-25T09:44:45;8.90;99.90
5009;DHT22;2523;51.058;6.922;2024-01-25T09:47:11;9.20;99.90
5009;DHT22;2523;51.058;6.922;2024-01-25T09:49:37;9.70;99.90
5009;DHT22;2523;51.058;6.922;2024-01-25T09:52:04;10.10;99.90
5009;DHT22;2523;51.058;6.922;2024-01-25T09:54:36;10.10;99.90
5009;DHT22;2523;51.058;6.922;2024-01-25T09:57:15;9.80;99.90
5009;DHT22;2523;51.058;6.922;2024-01-25T09:59:44;9.70;99.90
5009;DHT22;2523;51.058;6.922;2024-01-25T10:02:11;9.90;99.90
5009;DHT22;2523;51.058;6.922;2024-01-25T10:04:37;10.10;99.90
5009;DHT22;2523;51.058;6.922;2024-01-25T10:07:03;10.40;99.90
5009;DHT22;2523;51.058;6.922;2024-01-25T10:09:31;10.50;99.90
5009;DHT22;2523;51.058;6.922;2024-01-25T10:11:56;11.00;99.90
5009;DHT22;2523;51.058;6.922;2024-01-25T10:14:22;11.30;99.90
5009;DHT22;2523;51.058;6.922;2024-01-25T10:16:47;11.50;99.90
5009;DHT22;2523;51.058;6.922;2024-01-25T10:19:13;11.70;99.90
5009;DHT22;2523;51.058;6.922;2024-01-25T10:21:41;11.90;99.90
5009;DHT22;2523;51.058;6.922;2024-01-25T10:24:08;11.50;99.90
5009;DHT22;2523;51.058;6.922;2024-01-25T10:26:34;11.40;99.90
5009;DHT22;2523;51.058;6.922;2024-01-25T10:29:00;11.50;99.90
5009;DHT22;2523;51.058;6.922;2024-01-25T10:31:27;11.70;99.90
5009;DHT22;2523;51.058;6.922;2024-01-25T10:33:54;11.80;99.90
5009;DHT22;2523;51.058;6.922;2024-01-25T10:36:21;12.20;99.90
5009;DHT22;2523;51.058;6.922;2024-01-25T10:38:48;12.30;99.90
5009;DHT22;2523;51.058;6.922;2024-01-25T10:41:16;12.50;99.90
5009;DHT22;2523;51.058;6.922;2024-01-25T10:43:41;12.70;99.90
5009;DHT22;2523;51.058;6.922;2024-01-25T10:46:07;12.60;99.90
5009;DHT22;2523;51.058;6.922;2024-01-25T10:48:34;12.70;99.90
5009;DHT22;2523;51.058;6.922;2024-01-25T10:51:01;12.80;99.90
5009;DHT22;2523;51.058;6.922;2024-01-25T10:53:30;12.60;99.90
5009;DHT22;2523;51.058;6.922;2024-01-25T10:55:57;12.40;99.90
5009;DHT22;2523;51.058;6.922;2024-01-25T10:58:23;12.40;99.90
5009;DHT22;2523;51.058;6.922;2024-01-25T11:00:54;12.50;99.90
5009;DHT22;2523;51.058;6.922;2024-01-25T11:03:25;12.70;99.90
5009;DHT22;2523;51.058;6.922;2024-01-25T11:05:51;12.90;99.90
5009;DHT22;2523;51.058;6.922;2024-01-25T11:08:19;12.90;99.90
5009;DHT22;2523;51.058;6.922;2024-01-25T11:10:50;13.90;99.90
5009;DHT22;2523;51.058;6.922;2024-01-25T11:13:16;14.50;99.90
5009;DHT22;2523;51.058;6.922;2024-01-25T11:15:41;14.80;99.90
5009;DHT22;2523;51.058;6.922;2024-01-25T11:18:08;14.70;99.90
5009;DHT22;2523;51.058;6.922;2024-01-25T11:20:35;15.20;99.90
5009;DHT22;2523;51.058;6.922;2024-01-25T11:23:03;16.00;99.90
5009;DHT22;2523;51.058;6.922;2024-01-25T11:25:35;16.10;96.70
5009;DHT22;2523;51.058;6.922;2024-01-25T11:28:02;16.30;73.80
5009;DHT22;2523;51.058;6.922;2024-01-25T11:30:30;15.90;91.90
5009;DHT22;2523;51.058;6.922;2024-01-25T11:32:56;14.80;99.90
5009;DHT22;2523;51.058;6.922;2024-01-25T11:35:22;14.80;99.90
5009;DHT22;2523;51.058;6.922;2024-01-25T11:37:48;14.50;99.90
5009;DHT22;2523;51.058;6.922;2024-01-25T11:40:15;14.90;99.90
5009;DHT22;2523;51.058;6.922;2024-01-25T11:42:48;15.30;99.90
5009;DHT22;2523;51.058;6.922;2024-01-25T11:45:14;15.40;99.90
5009;DHT22;2523;51.058;6.922;2024-01-25T11:47:41;15.20;98.20
5009;DHT22;2523;51.058;6.922;2024-01-25T11:50:08;15.10;99.90
5009;DHT22;2523;51.058;6.922;2024-01-25T11:52:35;14.80;99.90
5009;DHT22;2523;51.058;6.922;2024-01-25T11:55:08;14.70;99.90
5009;DHT22;2523;51.058;6.922;2024-01-25T11:57:37;14.70;99.90
5009;DHT22;2523;51.058;6.922;2024-01-25T12:00:04;14.70;99.90
5009;DHT22;2523;51.058;6.922;2024-01-25T12:02:31;14.90;99.90
5009;DHT22;2523;51.058;6.922;2024-01-25T12:04:57;14.30;99.90
5009;DHT22;2523;51.058;6.922;2024-01-25T12:07:23;14.10;99.90
5009;DHT22;2523;51.058;6.922;2024-01-25T12:10:17;14.10;99.90
5009;DHT22;2523;51.058;6.922;2024-01-25T12:12:43;13.80;99.90
5009;DHT22;2523;51.058;6.922;2024-01-25T12:15:09;13.50;99.90
5009;DHT22;2523;51.058;6.922;2024-01-25T12:17:35;13.20;99.90
5009;DHT22;2523;51.058;6.922;2024-01-25T12:20:05;12.80;99.90
5009;DHT22;2523;51.058;6.922;2024-01-25T12:22:36;12.30;99.90
5009;DHT22;2523;51.058;6.922;2024-01-25T12:25:02;12.00;99.90
5009;DHT22;2523;51.058;6.922;2024-01-25T12:27:31;11.90;99.90
5009;DHT22;2523;51.058;6.922;2024-01-25T12:29:57;11.70;99.90
5009;DHT22;2523;51.058;6.922;2024-01-25T12:32:23;11.60;99.90
5009;DHT22;2523;51.058;6.922;2024-01-25T12:34:55;11.30;99.90
5009;DHT22;2523;51.058;6.922;2024-01-25T12:37:21;11.20;99.90
5009;DHT22;2523;51.058;6.922;2024-01-25T12:39:46;10.90;99.90
5009;DHT22;2523;51.058;6.922;2024-01-25T12:42:12;10.90;99.90
5009;DHT22;2523;51.058;6.922;2024-01-25T12:44:38;11.00;99.90
5009;DHT22;2523;51.058;6.922;2024-01-25T12:47:04;11.00;99.90
5009;DHT22;2523;51.058;6.922;2024-01-25T12:49:32;11.00;99.90
5009;DHT22;2523;51.058;6.922;2024-01-25T12:51:57;11.00;99.90
5009;DHT22;2523;51.058;6.922;2024-01-25T12:54:23;11.00;99.90
5009;DHT22;2523;51.058;6.922;2024-01-25T12:56:49;10.80;99.90
5009;DHT22;2523;51.058;6.922;2024-01-25T12:59:14;10.80;99.90
5009;DHT22;2523;51.058;6.922;2024-01-25T13:01:40;10.70;99.90
5009;DHT22;2523;51.058;6.922;2024-01-25T13:04:06;10.60;99.90
5009;DHT22;2523;51.058;6.922;2024-01-25T13:06:31;10.70;99.90
5009;DHT22;2523;51.058;6.922;2024-01-25T13:08:57;10.60;99.90
5009;DHT22;2523;51.058;6.922;2024-01-25T13:11:22;10.70;99.90
5009;DHT22;2523;51.058;6.922;2024-01-25T13:13:48;10.70;99.90
5009;DHT22;2523;51.058;6.922;2024-01-25T13:16:13;10.60;99.90
5009;DHT22;2523;51.058;6.922;2024-01-25T13:18:39;10.70;99.90
5009;DHT22;2523;51.058;6.922;2024-01-25T13:21:04;10.70;99.90
5009;DHT22;2523;51.058;6.922;2024-01-25T13:23:30;10.80;99.90
5009;DHT22;2523;51.058;6.922;2024-01-25T13:25:55;10.80;99.90
5009;DHT22;2523;51.058;6.922;2024-01-25T13:28:21;10.90;99.90
5009;DHT22;2523;51.058;6.922;2024-01-25T13:30:46;11.10;99.90
5009;DHT22;2523;51.058;6.922;2024-01-25T13:33:12;11.40;99.90
5009;DHT22;2523;51.058;6.922;2024-01-25T13:35:37;11.50;99.90
5009;DHT22;2523;51.058;6.922;2024-01-25T13:38:03;11.70;99.90
5009;DHT22;2523;51.058;6.922;2024-01-25T13:40:29;11.60;99.90
5009;DHT22;2523;51.058;6.922;2024-01-25T13:42:55;11.60;99.90
5009;DHT22;2523;51.058;6.922;2024-01-25T13:45:21;11.60;99.90
5009;DHT22;2523;51.058;6.922;2024-01-25T13:47:46;11.50;99.90
5009;DHT22;2523;51.058;6.922;2024-01-25T13:50:12;11.40;99.90
5009;DHT22;2523;51.058;6.922;2024-01-25T13:52:37;11.40;99.90
5009;DHT22;2523;51.058;6.922;2024-01-25T13:55:03;11.40;99.90
5009;DHT22;2523;51.058;6.922;2024-01-25T13:57:29;11.40;99.90
5009;DHT22;2523;51.058;6.922;2024-01-25T13:59:54;11.20;99.90
5009;DHT22;2523;51.058;6.922;2024-01-25T14:02:20;11.20;99.90
5009;DHT22;2523;51.058;6.922;2024-01-25T14:04:45;11.10;99.90
5009;DHT22;2523;51.058;6.922;2024-01-25T14:07:13;11.10;99.90
5009;DHT22;2523;51.058;6.922;2024-01-25T14:09:39;11.10;99.90
5009;DHT22;2523;51.058;6.922;2024-01-25T14:12:06;10.90;99.90
5009;DHT22;2523;51.058;6.922;2024-01-25T14:14:32;10.90;99.90
5009;DHT22;2523;51.058;6.922;2024-01-25T14:16:58;11.00;99.90
5009;DHT22;2523;51.058;6.922;2024-01-25T14:19:24;11.00;99.90
5009;DHT22;2523;51.058;6.922;2024-01-25T14:21:49;11.00;99.90
5009;DHT22;2523;51.058;6.922;2024-01-25T14:24:16;11.00;99.90
5009;DHT22;2523;51.058;6.922;2024-01-25T14:26:43;10.90;99.90
5009;DHT22;2523;51.058;6.922;2024-01-25T14:29:09;10.80;99.90
5009;DHT22;2523;51.058;6.922;2024-01-25T14:31:35;10.70;99.90
5009;DHT22;2523;51.058;6.922;2024-01-25T14:34:01;10.60;99.90
5009;DHT22;2523;51.058;6.922;2024-01-25T14:36:26;10.50;99.90
5009;DHT22;2523;51.058;6.922;2024-01-25T14:38:52;10.40;99.90
5009;DHT22;2523;51.058;6.922;2024-01-25T14:41:17;10.30;99.90
5009;DHT22;2523;51.058;6.922;2024-01-25T14:43:43;10.20;99.90
5009;DHT22;2523;51.058;6.922;2024-01-25T14:46:09;10.10;99.90
5009;DHT22;2523;51.058;6.922;2024-01-25T14:48:35;10.00;99.90
5009;DHT22;2523;51.058;6.922;2024-01-25T14:51:01;10.00;99.90
5009;DHT22;2523;51.058;6.922;2024-01-25T14:53:26;9.90;99.90
5009;DHT22;2523;51.058;6.922;2024-01-25T14:55:52;9.90;99.90
5009;DHT22;2523;51.058;6.922;2024-01-25T14:58:18;9.80;99.90
5009;DHT22;2523;51.058;6.922;2024-01-25T15:00:48;9.90;99.90
5009;DHT22;2523;51.058;6.922;2024-01-25T15:03:14;10.00;99.90
5009;DHT22;2523;51.058;6.922;2024-01-25T15:05:40;10.00;99.90
5009;DHT22;2523;51.058;6.922;2024-01-25T15:08:06;10.00;99.90
5009;DHT22;2523;51.058;6.922;2024-01-25T15:10:31;10.10;99.90
5009;DHT22;2523;51.058;6.922;2024-01-25T15:12:57;10.10;99.90
5009;DHT22;2523;51.058;6.922;2024-01-25T15:15:27;10.10;99.90
5009;DHT22;2523;51.058;6.922;2024-01-25T15:17:54;10.10;99.90
5009;DHT22;2523;51.058;6.922;2024-01-25T15:20:20;10.10;99.90
5009;DHT22;2523;51.058;6.922;2024-01-25T15:22:46;10.10;99.90
5009;DHT22;2523;51.058;6.922;2024-01-25T15:25:13;10.10;99.90
5009;DHT22;2523;51.058;6.922;2024-01-25T15:27:38;10.10;99.90
5009;DHT22;2523;51.058;6.922;2024-01-25T15:30:04;10.10;99.90
5009;DHT22;2523;51.058;6.922;2024-01-25T15:32:31;10.00;99.90
5009;DHT22;2523;51.058;6.922;2024-01-25T15:34:57;10.00;99.90
5009;DHT22;2523;51.058;6.922;2024-01-25T15:37:22;9.90;99.90
5009;DHT22;2523;51.058;6.922;2024-01-25T15:39:48;9.90;99.90
5009;DHT22;2523;51.058;6.922;2024-01-25T15:42:14;9.90;99.90
5009;DHT22;2523;51.058;6.922;2024-01-25T15:44:39;9.90;99.90
5009;DHT22;2523;51.058;6.922;2024-01-25T15:47:05;9.90;99.90
5009;DHT22;2523;51.058;6.922;2024-01-25T15:49:31;9.90;99.90
5009;DHT22;2523;51.058;6.922;2024-01-25T15:51:56;10.00;99.90
5009;DHT22;2523;51.058;6.922;2024-01-25T15:54:22;9.90;99.90
5009;DHT22;2523;51.058;6.922;2024-01-25T15:56:47;9.80;99.90
5009;DHT22;2523;51.058;6.922;2024-01-25T15:59:13;9.70;99.90
5009;DHT22;2523;51.058;6.922;2024-01-25T16:01:38;9.70;99.90
5009;DHT22;2523;51.058;6.922;2024-01-25T16:04:04;9.60;99.90
5009;DHT22;2523;51.058;6.922;2024-01-25T16:06:30;9.60;99.90